Pearl Of Scandinavia — OWFU2 — position and weather

sailwx.info

Track history (hours):
 
Tides and Currents Weather Stations Pressure Air Temp Water Temp Dewpoint Dewpoint Depression Visibility Wind Speed Wind Dir Waves Ship Positions

Pearl Of Scandinavia

Last reported at 2016-Feb-12 21:31 UTC. Time now 2016-Feb-12 22:28 UTC.
Position N 57°07' E 011°41'.

Length 176.4 m; beam 34 m; draft 6.215 m.

Type: Ship. MMSI: 219945000.

Date/timePositionNaut miles runAvg speedWind from/ knotsBaromVisibWave heightAir tempDewpointWater temp
2016-Feb-12 21:31N 57°07' E 011°41'1616.6
2016-Feb-12 20:34N 56°53' E 011°52'1616.4
2016-Feb-12 19:33N 56°39' E 012°08'3417.2
2016-Feb-12 17:33N 56°07' E 012°33'1716.9
2016-Feb-12 16:33N 55°52' E 012°45'1110.7
2016-Feb-12 15:34N 55°42' E 012°36'0 0.0
2016-Feb-12 14:32N 55°42' E 012°36'0 0.0
2016-Feb-12 13:32N 55°42' E 012°36'0 0.0
2016-Feb-12 12:32N 55°42' E 012°36'0 0.0
2016-Feb-12 11:32N 55°42' E 012°36'0 0.0
2016-Feb-12 10:32N 55°42' E 012°36'0 0.0
2016-Feb-12 09:29N 55°42' E 012°36'0 0.3
2016-Feb-12 08:34N 55°42' E 012°36'1111.5
2016-Feb-12 07:34N 55°54' E 012°40'1414.0
2016-Feb-12 06:33N 56°07' E 012°32'3015.0
2016-Feb-12 04:33N 56°35' E 012°14'1615.9
2016-Feb-12 03:33N 56°50' E 012°05'1616.1
2016-Feb-12 02:33N 57°06' E 011°56'1716.8
2016-Feb-12 01:34N 57°21' E 011°44'1616.3
2016-Feb-12 00:34N 57°35' E 011°29'1616.3
2016-Feb-11 23:33N 57°50' E 011°16'1616.2
2016-Feb-11 22:34N 58°06' E 011°09'1616.1
2016-Feb-11 21:34N 58°21' E 010°60'1616.1
2016-Feb-11 20:34N 58°37' E 010°50'1716.8
2016-Feb-11 19:34N 58°53' E 010°44'1817.6
2016-Feb-11 18:33N 59°10' E 010°38'1818.0
2016-Feb-11 17:34N 59°28' E 010°34'1514.3
2016-Feb-11 16:29N 59°44' E 010°33'11 1.3
2016-Feb-11 08:18N 59°53' E 010°41'1114.6
2016-Feb-11 07:33N 59°43' E 010°35'1413.9
2016-Feb-11 06:34N 59°29' E 010°35'1615.8
2016-Feb-11 05:34N 59°14' E 010°38'1615.8
2016-Feb-11 04:34N 58°58' E 010°42'1615.7
2016-Feb-11 03:34N 58°42' E 010°45'1615.8
2016-Feb-11 02:34N 58°27' E 010°54'1615.8
2016-Feb-11 01:34N 58°12' E 011°03'1615.9
2016-Feb-11 00:34N 57°57' E 011°12'1716.6
2016-Feb-10 23:34N 57°41' E 011°22'1616.2
2016-Feb-10 22:33N 57°26' E 011°31'1616.1
2016-Feb-10 21:33N 57°10' E 011°39'1616.4
2016-Feb-10 20:34N 56°55' E 011°49'1716.5
2016-Feb-10 19:33N 56°41' E 012°06'1716.7
2016-Feb-10 18:33N 56°26' E 012°18'1717.0
2016-Feb-10 17:33N 56°10' E 012°30'1615.8
2016-Feb-10 16:33N 55°56' E 012°43'1414.0
2016-Feb-10 15:33N 55°43' E 012°37'1 0.7
2016-Feb-10 14:33N 55°42' E 012°36'0 0.0
2016-Feb-10 13:33N 55°42' E 012°36'0 0.0
2016-Feb-10 12:33N 55°42' E 012°36'0 0.0
2016-Feb-10 11:33N 55°42' E 012°36'0 0.0
2016-Feb-10 10:33N 55°42' E 012°36'0 0.0
2016-Feb-10 09:33N 55°42' E 012°36'0 0.3
2016-Feb-10 08:34N 55°42' E 012°36'1111.0
2016-Feb-10 07:33N 55°53' E 012°39'1414.0
2016-Feb-10 06:33N 56°07' E 012°32'3416.9
2016-Feb-10 04:33N 56°39' E 012°12'1717.4
2016-Feb-10 03:33N 56°55' E 012°02'1717.3
2016-Feb-10 02:33N 57°11' E 011°53'1716.9
2016-Feb-10 01:33N 57°26' E 011°37'1716.9
2016-Feb-10 00:33N 57°41' E 011°23'1616.5
2016-Feb-09 23:33N 57°57' E 011°12'1615.6
2016-Feb-09 22:33N 58°11' E 011°02'1515.5
2016-Feb-09 21:33N 58°26' E 010°55'1514.8
2016-Feb-09 20:34N 58°40' E 010°47'1615.7
2016-Feb-09 19:33N 58°56' E 010°43'1716.8
2016-Feb-09 18:34N 59°13' E 010°37'1717.2
2016-Feb-09 17:34N 59°30' E 010°34'1412.8
2016-Feb-09 16:29N 59°44' E 010°34'11 1.3
2016-Feb-09 08:18N 59°54' E 010°41'1014.2
2016-Feb-09 07:34N 59°44' E 010°33'1413.6
2016-Feb-09 06:33N 59°30' E 010°35'1515.1
2016-Feb-09 05:33N 59°15' E 010°38'1615.9
2016-Feb-09 04:33N 58°59' E 010°42'1615.8
2016-Feb-09 03:33N 58°44' E 010°45'1616.3
2016-Feb-09 02:33N 58°28' E 010°54'1616.4
2016-Feb-09 01:33N 58°12' E 011°03'1615.9
2016-Feb-09 00:33N 57°57' E 011°12'1615.7
2016-Feb-08 23:33N 57°42' E 011°20'1616.1
2016-Feb-08 22:33N 57°27' E 011°30'1616.1
2016-Feb-08 21:33N 57°11' E 011°39'1616.0
2016-Feb-08 20:33N 56°56' E 011°48'1615.6
2016-Feb-08 19:33N 56°43' E 012°03'1515.2
2016-Feb-08 18:33N 56°29' E 012°15'2216.5
2016-Feb-08 17:13N 56°09' E 012°31'1217.7
2016-Feb-08 16:33N 55°59' E 012°42'1615.7
2016-Feb-08 15:33N 55°43' E 012°39'2 0.7
2016-Feb-08 12:31N 55°42' E 012°36'0 0.0
2016-Feb-08 11:28N 55°42' E 012°36'0 0.0
2016-Feb-08 10:31N 55°42' E 012°36'0 0.0
2016-Feb-08 09:25N 55°42' E 012°36'0 0.2
2016-Feb-08 08:33N 55°42' E 012°36'1111.0
2016-Feb-08 07:33N 55°53' E 012°40'1313.0
2016-Feb-08 06:34N 56°06' E 012°34'2116.2
2016-Feb-08 05:15N 56°25' E 012°19'1318.1
2016-Feb-08 04:33N 56°37' E 012°12'1817.8
2016-Feb-08 03:33N 56°54' E 012°02'1717.4
2016-Feb-08 02:33N 57°11' E 011°52'1717.0
2016-Feb-08 01:33N 57°25' E 011°37'1717.1
2016-Feb-08 00:33N 57°41' E 011°24'1717.3
2016-Feb-07 23:34N 57°57' E 011°11'1515.0
2016-Feb-07 22:34N 58°11' E 011°05'1514.9
2016-Feb-07 21:33N 58°26' E 010°56'1514.8
2016-Feb-07 20:33N 58°40' E 010°48'1515.5
2016-Feb-07 19:34N 58°55' E 010°43'1615.8
2016-Feb-07 18:33N 59°11' E 010°38'1615.9
2016-Feb-07 17:33N 59°26' E 010°33'1414.4
2016-Feb-07 16:34N 59°41' E 010°37'13 1.6
2016-Feb-07 08:28N 59°54' E 010°41'1615.3
2016-Feb-07 07:24N 59°37' E 010°38'1517.4
2016-Feb-07 06:34N 59°23' E 010°35'1817.9
2016-Feb-07 05:34N 59°05' E 010°41'1716.9
2016-Feb-07 04:33N 58°49' E 010°47'1817.6
2016-Feb-07 03:33N 58°31' E 010°53'1817.7
2016-Feb-07 02:33N 58°14' E 011°03'1818.1
2016-Feb-07 01:33N 57°57' E 011°14'1817.7
2016-Feb-07 00:34N 57°41' E 011°25'1818.1
2016-Feb-06 23:33N 57°24' E 011°38'10 9.8
2016-Feb-06 22:33N 57°15' E 011°47'7 6.8
2016-Feb-06 21:34N 57°10' E 011°55'1817.5
2016-Feb-06 20:33N 56°54' E 012°08'1616.4
2016-Feb-06 19:33N 56°38' E 012°15'3216.0
2016-Feb-06 17:33N 56°08' E 012°32'1716.8
2016-Feb-06 16:33N 55°52' E 012°45'1111.2
2016-Feb-06 15:34N 55°42' E 012°36'0 0.0
2016-Feb-06 14:31N 55°42' E 012°36'0 0.0
2016-Feb-06 13:31N 55°42' E 012°36'0 0.0
2016-Feb-06 12:31N 55°42' E 012°36'0 0.0
2016-Feb-06 11:25N 55°42' E 012°36'0 0.0
2016-Feb-06 10:31N 55°42' E 012°36'0 0.0
2016-Feb-06 09:28N 55°42' E 012°36'0 0.3
2016-Feb-06 08:34N 55°42' E 012°36'1111.2
2016-Feb-06 07:34N 55°53' E 012°40'1413.9
2016-Feb-06 06:33N 56°07' E 012°32'3115.5
2016-Feb-06 04:33N 56°36' E 012°13'1716.8
2016-Feb-06 03:33N 56°52' E 012°04'1717.1
2016-Feb-06 02:33N 57°08' E 011°54'1716.7
2016-Feb-06 01:34N 57°23' E 011°41'1717.1
2016-Feb-06 00:34N 57°37' E 011°24'1717.1
2016-Feb-05 23:33N 57°54' E 011°14'1616.4
2016-Feb-05 22:34N 58°10' E 011°06'1616.2
2016-Feb-05 21:34N 58°25' E 010°57'1616.1
2016-Feb-05 20:34N 58°40' E 010°48'1616.1
2016-Feb-05 19:34N 58°56' E 010°43'1716.7
2016-Feb-05 18:34N 59°13' E 010°37'1717.2
2016-Feb-05 17:34N 59°30' E 010°34'1814.1
2016-Feb-05 16:15N 59°48' E 010°34'6 0.8
2016-Feb-05 08:18N 59°53' E 010°41'1114.3
2016-Feb-05 07:34N 59°43' E 010°34'1413.6
2016-Feb-05 06:34N 59°30' E 010°35'1615.9
2016-Feb-05 05:34N 59°14' E 010°38'1616.0
2016-Feb-05 04:34N 58°58' E 010°42'1616.0
2016-Feb-05 03:34N 58°42' E 010°45'1616.0
2016-Feb-05 02:34N 58°27' E 010°55'1616.3
2016-Feb-05 01:34N 58°11' E 011°04'1716.6
2016-Feb-05 00:34N 57°55' E 011°13'1616.0
2016-Feb-04 23:33N 57°40' E 011°22'1616.3
2016-Feb-04 22:33N 57°24' E 011°31'1716.7
2016-Feb-04 21:33N 57°08' E 011°40'1716.7
2016-Feb-04 20:34N 56°53' E 011°51'1616.2
2016-Feb-04 19:33N 56°39' E 012°07'1616.0
2016-Feb-04 18:32N 56°24' E 012°19'1616.3
2016-Feb-04 17:33N 56°09' E 012°31'1514.8
2016-Feb-04 16:33N 55°57' E 012°43'1414.0
2016-Feb-04 15:33N 55°43' E 012°38'1 1.2
2016-Feb-04 14:28N 55°42' E 012°36'0 0.0
2016-Feb-04 13:31N 55°42' E 012°36'0 0.0
2016-Feb-04 12:31N 55°42' E 012°36'0 0.0
2016-Feb-04 11:31N 55°42' E 012°36'0 0.0
2016-Feb-04 10:31N 55°42' E 012°36'0 0.0
2016-Feb-04 09:28N 55°42' E 012°36'0 0.4
2016-Feb-04 08:33N 55°42' E 012°36'1110.8
2016-Feb-04 07:34N 55°53' E 012°40'1615.6
2016-Feb-04 06:34N 56°08' E 012°30'3115.5
2016-Feb-04 04:34N 56°37' E 012°15'1616.2
2016-Feb-04 03:34N 56°53' E 012°09'1616.4
2016-Feb-04 02:34N 57°08' E 011°57'1616.4
2016-Feb-04 01:34N 57°22' E 011°42'1716.6
2016-Feb-04 00:34N 57°37' E 011°28'1716.8
2016-Feb-03 23:34N 57°53' E 011°15'1716.7
2016-Feb-03 22:34N 58°09' E 011°06'1615.7
2016-Feb-03 21:34N 58°24' E 010°58'1615.5
2016-Feb-03 20:34N 58°38' E 010°49'1515.5
2016-Feb-03 19:34N 58°54' E 010°44'1615.9
2016-Feb-03 18:34N 59°09' E 010°39'1717.2
2016-Feb-03 17:34N 59°26' E 010°33'1514.8
2016-Feb-03 16:33N 59°41' E 010°36'13 1.6
2016-Feb-03 08:25N 59°54' E 010°41'1314.7
2016-Feb-03 07:33N 59°41' E 010°36'1515.5
2016-Feb-03 06:34N 59°26' E 010°34'1818.0
2016-Feb-03 05:34N 59°08' E 010°40'2217.4
2016-Feb-03 04:18N 58°46' E 010°43'1317.5
2016-Feb-03 03:33N 58°33' E 010°46'1818.0
2016-Feb-03 02:33N 58°15' E 010°49'1717.1
2016-Feb-03 01:34N 57°58' E 010°52'1616.0
2016-Feb-03 00:33N 57°43' E 011°01'1515.2
2016-Feb-02 23:33N 57°32' E 011°21'1615.6
2016-Feb-02 22:33N 57°18' E 011°34'1716.6
2016-Feb-02 21:33N 57°02' E 011°42'  
Track history (hours):
 
Tides and Currents Weather Stations Pressure Air Temp Water Temp Dewpoint Dewpoint Depression Visibility Wind Speed Wind Dir Waves Ship Positions

Pearl Of Scandinavia

Last reported at 2016-Feb-12 21:31 UTC. Time now 2016-Feb-12 22:28 UTC.
Position N 57°07' E 011°41'.

Length 176.4 m; beam 34 m; draft 6.215 m.

Type: Ship. MMSI: 219945000.

Date/timePositionNaut miles runAvg speedWind from/ knotsBaromVisibWave heightAir tempDewpointWater temp
2016-Feb-12 21:31N 57°07' E 011°41'1616.6
2016-Feb-12 20:34N 56°53' E 011°52'1616.4
2016-Feb-12 19:33N 56°39' E 012°08'3417.2
2016-Feb-12 17:33N 56°07' E 012°33'1716.9
2016-Feb-12 16:33N 55°52' E 012°45'1110.7
2016-Feb-12 15:34N 55°42' E 012°36'0 0.0
2016-Feb-12 14:32N 55°42' E 012°36'0 0.0
2016-Feb-12 13:32N 55°42' E 012°36'0 0.0
2016-Feb-12 12:32N 55°42' E 012°36'0 0.0
2016-Feb-12 11:32N 55°42' E 012°36'0 0.0
2016-Feb-12 10:32N 55°42' E 012°36'0 0.0
2016-Feb-12 09:29N 55°42' E 012°36'0 0.3
2016-Feb-12 08:34N 55°42' E 012°36'1111.5
2016-Feb-12 07:34N 55°54' E 012°40'1414.0
2016-Feb-12 06:33N 56°07' E 012°32'3015.0
2016-Feb-12 04:33N 56°35' E 012°14'1615.9
2016-Feb-12 03:33N 56°50' E 012°05'1616.1
2016-Feb-12 02:33N 57°06' E 011°56'1716.8
2016-Feb-12 01:34N 57°21' E 011°44'1616.3
2016-Feb-12 00:34N 57°35' E 011°29'1616.3
2016-Feb-11 23:33N 57°50' E 011°16'1616.2
2016-Feb-11 22:34N 58°06' E 011°09'1616.1
2016-Feb-11 21:34N 58°21' E 010°60'1616.1
2016-Feb-11 20:34N 58°37' E 010°50'1716.8
2016-Feb-11 19:34N 58°53' E 010°44'1817.6
2016-Feb-11 18:33N 59°10' E 010°38'1818.0
2016-Feb-11 17:34N 59°28' E 010°34'1514.3
2016-Feb-11 16:29N 59°44' E 010°33'11 1.3
2016-Feb-11 08:18N 59°53' E 010°41'1114.6
2016-Feb-11 07:33N 59°43' E 010°35'1413.9
2016-Feb-11 06:34N 59°29' E 010°35'1615.8
2016-Feb-11 05:34N 59°14' E 010°38'1615.8
2016-Feb-11 04:34N 58°58' E 010°42'1615.7
2016-Feb-11 03:34N 58°42' E 010°45'1615.8
2016-Feb-11 02:34N 58°27' E 010°54'1615.8
2016-Feb-11 01:34N 58°12' E 011°03'1615.9
2016-Feb-11 00:34N 57°57' E 011°12'1716.6
2016-Feb-10 23:34N 57°41' E 011°22'1616.2
2016-Feb-10 22:33N 57°26' E 011°31'1616.1
2016-Feb-10 21:33N 57°10' E 011°39'1616.4
2016-Feb-10 20:34N 56°55' E 011°49'1716.5
2016-Feb-10 19:33N 56°41' E 012°06'1716.7
2016-Feb-10 18:33N 56°26' E 012°18'1717.0
2016-Feb-10 17:33N 56°10' E 012°30'1615.8
2016-Feb-10 16:33N 55°56' E 012°43'1414.0
2016-Feb-10 15:33N 55°43' E 012°37'1 0.7
2016-Feb-10 14:33N 55°42' E 012°36'0 0.0
2016-Feb-10 13:33N 55°42' E 012°36'0 0.0
2016-Feb-10 12:33N 55°42' E 012°36'0 0.0
2016-Feb-10 11:33N 55°42' E 012°36'0 0.0
2016-Feb-10 10:33N 55°42' E 012°36'0 0.0
2016-Feb-10 09:33N 55°42' E 012°36'0 0.3
2016-Feb-10 08:34N 55°42' E 012°36'1111.0
2016-Feb-10 07:33N 55°53' E 012°39'1414.0
2016-Feb-10 06:33N 56°07' E 012°32'3416.9
2016-Feb-10 04:33N 56°39' E 012°12'1717.4
2016-Feb-10 03:33N 56°55' E 012°02'1717.3
2016-Feb-10 02:33N 57°11' E 011°53'1716.9
2016-Feb-10 01:33N 57°26' E 011°37'1716.9
2016-Feb-10 00:33N 57°41' E 011°23'1616.5
2016-Feb-09 23:33N 57°57' E 011°12'1615.6
2016-Feb-09 22:33N 58°11' E 011°02'1515.5
2016-Feb-09 21:33N 58°26' E 010°55'1514.8
2016-Feb-09 20:34N 58°40' E 010°47'1615.7
2016-Feb-09 19:33N 58°56' E 010°43'1716.8
2016-Feb-09 18:34N 59°13' E 010°37'1717.2
2016-Feb-09 17:34N 59°30' E 010°34'1412.8
2016-Feb-09 16:29N 59°44' E 010°34'11 1.3
2016-Feb-09 08:18N 59°54' E 010°41'1014.2
2016-Feb-09 07:34N 59°44' E 010°33'1413.6
2016-Feb-09 06:33N 59°30' E 010°35'1515.1
2016-Feb-09 05:33N 59°15' E 010°38'1615.9
2016-Feb-09 04:33N 58°59' E 010°42'1615.8
2016-Feb-09 03:33N 58°44' E 010°45'1616.3
2016-Feb-09 02:33N 58°28' E 010°54'1616.4
2016-Feb-09 01:33N 58°12' E 011°03'1615.9
2016-Feb-09 00:33N 57°57' E 011°12'1615.7
2016-Feb-08 23:33N 57°42' E 011°20'1616.1
2016-Feb-08 22:33N 57°27' E 011°30'1616.1
2016-Feb-08 21:33N 57°11' E 011°39'1616.0
2016-Feb-08 20:33N 56°56' E 011°48'1615.6
2016-Feb-08 19:33N 56°43' E 012°03'1515.2
2016-Feb-08 18:33N 56°29' E 012°15'2216.5
2016-Feb-08 17:13N 56°09' E 012°31'1217.7
2016-Feb-08 16:33N 55°59' E 012°42'1615.7
2016-Feb-08 15:33N 55°43' E 012°39'2 0.7
2016-Feb-08 12:31N 55°42' E 012°36'0 0.0
2016-Feb-08 11:28N 55°42' E 012°36'0 0.0
2016-Feb-08 10:31N 55°42' E 012°36'0 0.0
2016-Feb-08 09:25N 55°42' E 012°36'0 0.2
2016-Feb-08 08:33N 55°42' E 012°36'1111.0
2016-Feb-08 07:33N 55°53' E 012°40'1313.0
2016-Feb-08 06:34N 56°06' E 012°34'2116.2
2016-Feb-08 05:15N 56°25' E 012°19'1318.1
2016-Feb-08 04:33N 56°37' E 012°12'1817.8
2016-Feb-08 03:33N 56°54' E 012°02'1717.4
2016-Feb-08 02:33N 57°11' E 011°52'1717.0
2016-Feb-08 01:33N 57°25' E 011°37'1717.1
2016-Feb-08 00:33N 57°41' E 011°24'1717.3
2016-Feb-07 23:34N 57°57' E 011°11'1515.0
2016-Feb-07 22:34N 58°11' E 011°05'1514.9
2016-Feb-07 21:33N 58°26' E 010°56'1514.8
2016-Feb-07 20:33N 58°40' E 010°48'1515.5
2016-Feb-07 19:34N 58°55' E 010°43'1615.8
2016-Feb-07 18:33N 59°11' E 010°38'1615.9
2016-Feb-07 17:33N 59°26' E 010°33'1414.4
2016-Feb-07 16:34N 59°41' E 010°37'13 1.6
2016-Feb-07 08:28N 59°54' E 010°41'1615.3
2016-Feb-07 07:24N 59°37' E 010°38'1517.4
2016-Feb-07 06:34N 59°23' E 010°35'1817.9
2016-Feb-07 05:34N 59°05' E 010°41'1716.9
2016-Feb-07 04:33N 58°49' E 010°47'1817.6
2016-Feb-07 03:33N 58°31' E 010°53'1817.7
2016-Feb-07 02:33N 58°14' E 011°03'1818.1
2016-Feb-07 01:33N 57°57' E 011°14'1817.7
2016-Feb-07 00:34N 57°41' E 011°25'1818.1
2016-Feb-06 23:33N 57°24' E 011°38'10 9.8
2016-Feb-06 22:33N 57°15' E 011°47'7 6.8
2016-Feb-06 21:34N 57°10' E 011°55'1817.5
2016-Feb-06 20:33N 56°54' E 012°08'1616.4
2016-Feb-06 19:33N 56°38' E 012°15'3216.0
2016-Feb-06 17:33N 56°08' E 012°32'1716.8
2016-Feb-06 16:33N 55°52' E 012°45'1111.2
2016-Feb-06 15:34N 55°42' E 012°36'0 0.0
2016-Feb-06 14:31N 55°42' E 012°36'0 0.0
2016-Feb-06 13:31N 55°42' E 012°36'0 0.0
2016-Feb-06 12:31N 55°42' E 012°36'0 0.0
2016-Feb-06 11:25N 55°42' E 012°36'0 0.0
2016-Feb-06 10:31N 55°42' E 012°36'0 0.0
2016-Feb-06 09:28N 55°42' E 012°36'0 0.3
2016-Feb-06 08:34N 55°42' E 012°36'1111.2
2016-Feb-06 07:34N 55°53' E 012°40'1413.9
2016-Feb-06 06:33N 56°07' E 012°32'3115.5
2016-Feb-06 04:33N 56°36' E 012°13'1716.8
2016-Feb-06 03:33N 56°52' E 012°04'1717.1
2016-Feb-06 02:33N 57°08' E 011°54'1716.7
2016-Feb-06 01:34N 57°23' E 011°41'1717.1
2016-Feb-06 00:34N 57°37' E 011°24'1717.1
2016-Feb-05 23:33N 57°54' E 011°14'1616.4
2016-Feb-05 22:34N 58°10' E 011°06'1616.2
2016-Feb-05 21:34N 58°25' E 010°57'1616.1
2016-Feb-05 20:34N 58°40' E 010°48'1616.1
2016-Feb-05 19:34N 58°56' E 010°43'1716.7
2016-Feb-05 18:34N 59°13' E 010°37'1717.2
2016-Feb-05 17:34N 59°30' E 010°34'1814.1
2016-Feb-05 16:15N 59°48' E 010°34'6 0.8
2016-Feb-05 08:18N 59°53' E 010°41'1114.3
2016-Feb-05 07:34N 59°43' E 010°34'1413.6
2016-Feb-05 06:34N 59°30' E 010°35'1615.9
2016-Feb-05 05:34N 59°14' E 010°38'1616.0
2016-Feb-05 04:34N 58°58' E 010°42'1616.0
2016-Feb-05 03:34N 58°42' E 010°45'1616.0
2016-Feb-05 02:34N 58°27' E 010°55'1616.3
2016-Feb-05 01:34N 58°11' E 011°04'1716.6
2016-Feb-05 00:34N 57°55' E 011°13'1616.0
2016-Feb-04 23:33N 57°40' E 011°22'1616.3
2016-Feb-04 22:33N 57°24' E 011°31'1716.7
2016-Feb-04 21:33N 57°08' E 011°40'1716.7
2016-Feb-04 20:34N 56°53' E 011°51'1616.2
2016-Feb-04 19:33N 56°39' E 012°07'1616.0
2016-Feb-04 18:32N 56°24' E 012°19'1616.3
2016-Feb-04 17:33N 56°09' E 012°31'1514.8
2016-Feb-04 16:33N 55°57' E 012°43'1414.0
2016-Feb-04 15:33N 55°43' E 012°38'1 1.2
2016-Feb-04 14:28N 55°42' E 012°36'0 0.0
2016-Feb-04 13:31N 55°42' E 012°36'0 0.0
2016-Feb-04 12:31N 55°42' E 012°36'0 0.0
2016-Feb-04 11:31N 55°42' E 012°36'0 0.0
2016-Feb-04 10:31N 55°42' E 012°36'0 0.0
2016-Feb-04 09:28N 55°42' E 012°36'0 0.4
2016-Feb-04 08:33N 55°42' E 012°36'1110.8
2016-Feb-04 07:34N 55°53' E 012°40'1615.6
2016-Feb-04 06:34N 56°08' E 012°30'3115.5
2016-Feb-04 04:34N 56°37' E 012°15'1616.2
2016-Feb-04 03:34N 56°53' E 012°09'1616.4
2016-Feb-04 02:34N 57°08' E 011°57'1616.4
2016-Feb-04 01:34N 57°22' E 011°42'1716.6
2016-Feb-04 00:34N 57°37' E 011°28'1716.8
2016-Feb-03 23:34N 57°53' E 011°15'1716.7
2016-Feb-03 22:34N 58°09' E 011°06'1615.7
2016-Feb-03 21:34N 58°24' E 010°58'1615.5
2016-Feb-03 20:34N 58°38' E 010°49'1515.5
2016-Feb-03 19:34N 58°54' E 010°44'1615.9
2016-Feb-03 18:34N 59°09' E 010°39'1717.2
2016-Feb-03 17:34N 59°26' E 010°33'1514.8
2016-Feb-03 16:33N 59°41' E 010°36'13 1.6
2016-Feb-03 08:25N 59°54' E 010°41'1314.7
2016-Feb-03 07:33N 59°41' E 010°36'1515.5
2016-Feb-03 06:34N 59°26' E 010°34'1818.0
2016-Feb-03 05:34N 59°08' E 010°40'2217.4
2016-Feb-03 04:18N 58°46' E 010°43'1317.5
2016-Feb-03 03:33N 58°33' E 010°46'1818.0
2016-Feb-03 02:33N 58°15' E 010°49'1717.1
2016-Feb-03 01:34N 57°58' E 010°52'1616.0
2016-Feb-03 00:33N 57°43' E 011°01'1515.2
2016-Feb-02 23:33N 57°32' E 011°21'1615.6
2016-Feb-02 22:33N 57°18' E 011°34'1716.6
2016-Feb-02 21:33N 57°02' E 011°42'  

Dump ship's entire track history